Time;durP1;ratioP1;P1;durP2;ratioP2;P2;SDS_P1;SDS_P2;PMS_P1;PMS_P2;Temp;Humidity;BMP_temperature;BMP_pressure;BME280_temperature;BME280_humidity;BME280_pressure;Samples;Min_cycle;Max_cycle;Signal;HPM_P1;HPM_P2
2022/08/10 00:01:48;;;;;;;10.32;4.65;;;;;;;23.90;49.35;99911.94;5111065;28;20039;-66
2022/08/10 00:04:14;;;;;;;10.25;5.22;;;;;;;23.90;48.98;99906.50;5110875;28;20047;-66
2022/08/10 00:06:40;;;;;;;7.20;5.05;;;;;;;23.82;49.00;99892.47;5093779;28;20502;-66
2022/08/10 00:09:05;;;;;;;7.05;4.50;;;;;;;23.97;48.65;99903.69;5093852;28;20528;-66
2022/08/10 00:11:31;;;;;;;10.93;4.60;;;;;;;23.85;48.65;99881.16;5092876;28;20466;-65
2022/08/10 00:13:57;;;;;;;12.60;4.65;;;;;;;24.04;48.50;99899.78;5112086;28;20043;-67
2022/08/10 00:16:23;;;;;;;10.80;4.45;;;;;;;24.04;48.28;99901.66;5111062;28;20048;-65
2022/08/10 00:18:48;;;;;;;10.32;4.90;;;;;;;24.14;48.31;99918.19;5093471;28;20134;-65
2022/08/10 00:21:15;;;;;;;5.93;4.20;;;;;;;24.20;48.47;99912.59;5112039;28;20039;-65
2022/08/10 00:23:43;;;;;;;9.45;4.60;;;;;;;24.18;48.20;99914.75;5111808;28;20531;-65
2022/08/10 00:26:08;;;;;;;7.07;3.92;;;;;;;24.21;48.37;99911.56;5110749;28;20118;-65
2022/08/10 00:28:34;;;;;;;8.60;3.97;;;;;;;24.23;48.17;99906.69;5110724;28;20054;-65
2022/08/10 00:31:00;;;;;;;6.93;4.00;;;;;;;24.19;47.96;99893.84;5111830;28;20093;-66
2022/08/10 00:33:26;;;;;;;8.52;4.00;;;;;;;24.37;47.69;99913.50;5110929;28;20084;-65
2022/08/10 00:35:51;;;;;;;9.50;4.10;;;;;;;24.43;47.54;99917.19;5110329;28;20040;-65
2022/08/10 00:38:17;;;;;;;5.22;3.60;;;;;;;24.42;47.53;99915.50;5110833;28;20481;-65
2022/08/10 00:40:43;;;;;;;5.70;3.25;;;;;;;24.41;47.38;99916.56;5110510;28;20051;-65
2022/08/10 00:43:08;;;;;;;4.88;3.42;;;;;;;24.38;47.17;99911.63;5110457;28;20073;-66
2022/08/10 00:45:34;;;;;;;4.55;3.22;;;;;;;24.45;47.62;99923.16;5111679;28;20101;-66
2022/08/10 00:48:00;;;;;;;6.25;3.60;;;;;;;24.41;47.36;99919.28;5110064;28;20067;-67
2022/08/10 00:50:26;;;;;;;4.10;3.20;;;;;;;24.37;47.65;99910.78;5093497;28;20063;-66
2022/08/10 00:52:52;;;;;;;5.28;3.22;;;;;;;24.35;47.62;99906.69;5111478;28;20047;-65
2022/08/10 00:55:18;;;;;;;4.28;3.17;;;;;;;24.43;47.45;99911.75;5110310;28;20483;-66
2022/08/10 00:57:45;;;;;;;10.65;3.92;;;;;;;24.48;47.41;99914.53;5093559;28;20551;-65
2022/08/10 01:00:11;;;;;;;8.13;3.00;;;;;;;24.37;47.40;99913.50;5110419;28;20463;-66
2022/08/10 01:02:39;;;;;;;4.45;2.97;;;;;;;24.30;47.43;99917.44;5076674;28;20096;-65
2022/08/10 01:05:09;;;;;;;3.97;3.03;;;;;;;24.53;47.31;99910.06;5093550;28;20053;-66
2022/08/10 01:07:51;;;;;;;5.82;3.28;;;;;;;24.60;47.27;99910.72;5109963;28;20055;-65
2022/08/10 01:10:36;;;;;;;6.00;2.90;;;;;;;24.42;47.35;99912.78;5109936;28;20047;-66
2022/08/10 01:13:07;;;;;;;8.50;3.28;;;;;;;24.65;47.23;99910.00;5110847;28;20052;-66
2022/08/10 01:16:07;;;;;;;4.72;3.15;;;;;;;24.72;46.69;99903.38;5109788;28;20051;-66
2022/08/10 01:18:51;;;;;;;9.05;3.42;;;;;;;24.68;46.76;99913.09;5109268;28;20131;-66
2022/08/10 01:21:23;;;;;;;8.18;3.20;;;;;;;24.45;47.30;99912.31;5110885;28;20039;-66
2022/08/10 01:24:08;;;;;;;6.20;3.40;;;;;;;24.66;46.74;99912.50;5096845;28;20055;-65
2022/08/10 01:26:56;;;;;;;6.40;3.50;;;;;;;24.63;46.44;99879.56;5096770;28;20580;-66
2022/08/10 01:29:48;;;;;;;5.85;3.22;;;;;;;24.69;46.36;99903.84;5115273;28;20069;-66
2022/08/10 01:32:17;;;;;;;4.25;2.80;;;;;;;24.53;46.53;99907.34;5114976;28;20109;-66
2022/08/10 01:34:53;;;;;;;4.68;2.80;;;;;;;24.66;46.69;99917.94;5113704;28;20408;-66
2022/08/10 01:37:22;;;;;;;4.97;2.88;;;;;;;24.66;46.61;99922.56;5114023;28;20511;-65
2022/08/10 01:39:52;;;;;;;5.88;2.90;;;;;;;24.64;46.52;99908.34;5097082;28;20038;-66
2022/08/10 01:42:19;;;;;;;4.35;2.88;;;;;;;24.61;46.29;99923.25;5113637;28;20039;-67
2022/08/10 01:45:05;;;;;;;6.05;2.75;;;;;;;24.74;46.03;99933.84;5113678;28;20040;-66
2022/08/10 01:50:29;;;;;;;3.30;2.30;;;;;;;24.78;46.14;99935.03;5099221;28;20488;-66
2022/08/10 01:53:00;;;;;;;6.78;2.60;;;;;;;24.74;46.09;99935.72;5113783;28;20051;-66
2022/08/10 01:55:27;;;;;;;3.13;2.30;;;;;;;24.75;45.93;99940.13;5113743;28;20050;-65
2022/08/10 01:57:53;;;;;;;5.53;2.50;;;;;;;24.73;45.80;99939.53;5113410;28;20036;-65
2022/08/10 02:00:19;;;;;;;5.78;2.42;;;;;;;24.64;45.75;99932.81;5096442;28;20043;-65
2022/08/10 02:02:46;;;;;;;4.85;2.63;;;;;;;24.76;45.51;99939.03;5113214;28;20492;-65
2022/08/10 02:05:12;;;;;;;8.52;4.32;;;;;;;24.51;45.94;99911.34;5096355;28;20077;-65
2022/08/10 02:07:39;;;;;;;6.60;2.38;;;;;;;24.67;45.81;99932.34;5114561;28;20492;-65
2022/08/10 02:10:12;;;;;;;9.13;2.58;;;;;;;24.67;45.72;99932.34;5113364;28;20077;-66
2022/08/10 02:12:38;;;;;;;8.57;2.70;;;;;;;24.55;46.00;99936.97;5096067;28;20052;-67
2022/08/10 02:15:07;;;;;;;4.20;2.65;;;;;;;24.61;45.93;99942.25;5078819;28;20054;-67
2022/08/10 02:17:39;;;;;;;5.53;2.17;;;;;;;24.63;45.81;99942.03;5113411;28;20093;-66
2022/08/10 02:20:09;;;;;;;4.88;2.08;;;;;;;24.56;45.87;99928.56;5113230;28;20118;-66
2022/08/10 02:22:36;;;;;;;3.73;2.20;;;;;;;24.65;45.85;99935.31;5079013;28;20043;-65
2022/08/10 02:25:03;;;;;;;5.55;2.40;;;;;;;24.54;45.74;99924.47;5096378;28;20032;-69
2022/08/10 02:27:30;;;;;;;5.72;2.83;;;;;;;24.69;45.61;99943.81;5113350;28;20501;-66
2022/08/10 02:29:56;;;;;;;5.35;2.25;;;;;;;24.80;45.97;99951.09;5112685;28;20500;-66
2022/08/10 02:32:23;;;;;;;7.53;2.60;;;;;;;24.84;45.48;99944.94;5112803;28;20561;-65
2022/08/10 02:34:49;;;;;;;6.25;2.50;;;;;;;24.76;45.31;99941.75;5111526;28;20044;-65
2022/08/10 02:37:16;;;;;;;4.10;2.30;;;;;;;24.95;45.29;99945.09;5095773;28;20047;-65
2022/08/10 02:39:42;;;;;;;4.28;2.15;;;;;;;24.56;45.41;99915.00;5112436;28;20507;-65
2022/08/10 02:42:12;;;;;;;5.35;2.17;;;;;;;24.95;44.98;99932.34;5095434;28;20071;-66
2022/08/10 02:44:47;;;;;;;4.80;2.20;;;;;;;25.03;45.30;99944.72;5095943;28;20123;-66
2022/08/10 02:47:20;;;;;;;4.78;2.20;;;;;;;24.94;45.11;99949.72;5112377;28;20032;-66
2022/08/10 02:49:56;;;;;;;5.80;2.47;;;;;;;25.08;45.02;99942.91;5112363;28;20059;-65
2022/08/10 02:52:30;;;;;;;6.95;2.80;;;;;;;25.05;44.93;99939.88;5112106;28;20517;-65
2022/08/10 02:55:11;;;;;;;4.30;2.30;;;;;;;25.00;45.08;99924.31;5112176;28;20079;-65
2022/08/10 02:57:39;;;;;;;3.95;1.90;;;;;;;25.02;45.22;99937.66;5095157;28;20048;-66
2022/08/10 03:00:06;;;;;;;5.38;2.30;;;;;;;25.04;45.27;99936.31;5113360;28;20085;-65
2022/08/10 03:02:42;;;;;;;8.32;2.42;;;;;;;25.24;44.56;99935.84;5112474;28;20043;-65
2022/08/10 03:05:11;;;;;;;3.42;2.20;;;;;;;25.36;44.64;99948.34;5111985;28;20051;-66
2022/08/10 03:07:59;;;;;;;8.77;2.65;;;;;;;25.54;44.17;99944.56;5113607;28;20044;-65
2022/08/10 03:10:27;;;;;;;8.63;2.47;;;;;;;25.68;44.04;99943.97;5113596;28;20085;-65
2022/08/10 03:13:00;;;;;;;4.00;2.42;;;;;;;25.88;43.36;99952.44;5094998;28;20043;-65
2022/08/10 03:15:28;;;;;;;3.90;2.33;;;;;;;25.89;43.33;99954.09;5078280;28;20036;-65
2022/08/10 03:17:55;;;;;;;4.63;2.30;;;;;;;25.85;43.10;99931.16;5094744;28;20036;-65
2022/08/10 03:20:22;;;;;;;3.78;2.33;;;;;;;26.00;43.03;99946.94;5094835;28;20043;-66
2022/08/10 03:22:49;;;;;;;4.78;2.50;;;;;;;25.81;43.15;99918.31;5111386;28;20052;-66
2022/08/10 03:25:15;;;;;;;4.80;2.33;;;;;;;26.03;42.96;99949.97;5077716;28;20089;-66
2022/08/10 03:27:41;;;;;;;3.95;2.42;;;;;;;26.05;42.66;99947.00;5094391;28;20050;-66
2022/08/10 03:30:09;;;;;;;6.63;2.15;;;;;;;26.15;42.80;99952.59;5077567;28;20039;-67
2022/08/10 03:32:35;;;;;;;4.63;2.50;;;;;;;26.12;42.74;99944.94;5111842;28;20488;-66
2022/08/10 03:35:01;;;;;;;3.92;2.33;;;;;;;26.18;42.67;99957.53;5111407;28;20036;-66
2022/08/10 03:37:28;;;;;;;10.00;2.70;;;;;;;26.13;42.74;99952.03;5112696;28;20047;-66
2022/08/10 03:39:54;;;;;;;9.30;2.65;;;;;;;26.20;42.61;99964.38;5112608;28;20042;-66
2022/08/10 03:42:21;;;;;;;5.38;2.55;;;;;;;26.42;42.17;99957.06;5112366;28;20532;-66
2022/08/10 03:44:48;;;;;;;9.13;2.70;;;;;;;26.33;42.09;99934.06;5094053;28;20508;-66
2022/08/10 03:47:15;;;;;;;10.00;2.72;;;;;;;26.44;42.34;99954.06;5111312;28;20096;-66
2022/08/10 03:49:41;;;;;;;8.63;2.70;;;;;;;26.49;42.07;99963.13;5094080;28;20454;-66
2022/08/10 03:52:07;;;;;;;5.90;2.47;;;;;;;26.28;41.96;99954.94;5111341;28;20497;-66
2022/08/10 03:54:34;;;;;;;8.82;2.75;;;;;;;26.24;41.95;99949.19;5094091;28;20068;-66
2022/08/10 03:56:59;;;;;;;6.10;2.90;;;;;;;26.26;41.68;99955.19;5112180;28;20039;-66
2022/08/10 03:59:25;;;;;;;4.65;2.78;;;;;;;26.12;42.33;99958.56;5094810;28;20408;-66
2022/08/10 04:01:51;;;;;;;8.65;2.78;;;;;;;26.19;42.27;99954.56;5112148;28;20065;-65
2022/08/10 04:04:18;;;;;;;5.85;2.95;;;;;;;26.20;42.19;99947.22;5110607;28;20132;-66
2022/08/10 04:06:45;;;;;;;6.60;3.00;;;;;;;26.15;42.19;99955.31;5110662;28;20043;-66
2022/08/10 04:09:11;;;;;;;7.20;2.50;;;;;;;26.01;42.41;99957.59;5093717;28;20101;-66
2022/08/10 04:11:38;;;;;;;12.93;3.75;;;;;;;25.98;42.52;99960.78;5111954;28;20035;-66
2022/08/10 04:14:03;;;;;;;6.50;2.58;;;;;;;25.95;42.28;99958.56;5111687;28;20462;-65
2022/08/10 04:16:29;;;;;;;6.40;3.35;;;;;;;25.95;42.20;99965.88;5110104;28;20047;-65
2022/08/10 04:18:55;;;;;;;9.65;2.95;;;;;;;26.03;42.25;99966.31;5111424;28;20073;-65
2022/08/10 04:21:26;;;;;;;10.30;2.88;;;;;;;26.22;42.12;99964.13;5110211;28;20031;-65
2022/08/10 04:23:52;;;;;;;7.93;3.72;;;;;;;26.26;41.75;99973.47;5110422;28;20082;-66
2022/08/10 04:26:18;;;;;;;8.60;2.80;;;;;;;26.22;41.52;99975.84;5078047;28;20141;-65
2022/08/10 04:28:44;;;;;;;5.65;2.70;;;;;;;26.25;41.52;99974.50;5060878;28;20040;-66
2022/08/10 04:31:11;;;;;;;7.00;2.90;;;;;;;26.45;41.16;99981.06;5077364;28;20043;-65
2022/08/10 04:33:42;;;;;;;9.73;3.20;;;;;;;26.55;41.15;99993.16;5111953;28;20055;-65
2022/08/10 04:36:09;;;;;;;6.07;2.90;;;;;;;26.48;40.89;99984.38;5093359;28;20036;-65
2022/08/10 04:38:35;;;;;;;9.07;3.22;;;;;;;26.52;41.07;99989.88;5110320;28;20086;-65
2022/08/10 04:41:01;;;;;;;7.00;2.90;;;;;;;26.52;40.47;99994.50;5111554;28;20035;-65
2022/08/10 04:43:27;;;;;;;4.78;2.55;;;;;;;26.59;40.24;99992.41;5111321;28;20089;-65
2022/08/10 04:45:53;;;;;;;12.77;3.08;;;;;;;26.61;40.15;99990.25;5093017;28;20607;-66
2022/08/10 04:48:21;;;;;;;9.57;3.00;;;;;;;26.74;40.02;99989.09;5093567;28;20058;-65
2022/08/10 04:50:47;;;;;;;6.90;2.65;;;;;;;26.68;39.57;99982.75;5110208;28;20054;-65
2022/08/10 04:53:12;;;;;;;5.65;2.58;;;;;;;26.68;39.67;99985.47;5111737;28;20035;-66
2022/08/10 04:55:38;;;;;;;8.02;3.03;;;;;;;26.81;39.58;99995.16;5111697;28;20078;-66
2022/08/10 04:58:04;;;;;;;9.40;2.70;;;;;;;26.71;39.32;99968.59;5110740;28;20180;-65
2022/08/10 05:00:29;;;;;;;10.05;3.10;;;;;;;26.98;39.43;100001.38;5110956;28;20062;-65
2022/08/10 05:02:55;;;;;;;8.15;3.15;;;;;;;26.86;39.11;99971.53;5111476;28;20523;-66
2022/08/10 05:05:21;;;;;;;10.25;2.75;;;;;;;27.08;38.84;99996.84;5092841;28;20075;-65
2022/08/10 05:07:47;;;;;;;8.15;2.60;;;;;;;27.09;38.54;99981.31;5111234;28;20046;-65
2022/08/10 05:10:12;;;;;;;7.22;2.60;;;;;;;26.97;38.46;99958.81;5093492;28;20093;-66
2022/08/10 05:12:38;;;;;;;7.68;2.40;;;;;;;27.02;38.97;99970.59;5111290;28;20429;-65
2022/08/10 05:15:09;;;;;;;8.07;2.42;;;;;;;27.16;38.65;99980.03;5111018;28;20563;-65
2022/08/10 05:17:35;;;;;;;6.75;2.78;;;;;;;26.95;38.74;99971.88;5110804;28;20524;-66
2022/08/10 05:20:05;;;;;;;5.93;2.40;;;;;;;27.07;38.49;99981.56;5111067;28;20585;-66
2022/08/10 05:22:36;;;;;;;4.05;2.05;;;;;;;27.20;38.46;99966.72;5109759;28;20416;-66
2022/08/10 05:25:02;;;;;;;;;;;;;;;27.45;37.71;99970.50;5111245;28;20173;-66
2022/08/10 05:27:29;;;;;;;4.32;2.22;;;;;;;27.25;37.98;99955.81;5109794;28;19930;-65
2022/08/10 05:29:54;;;;;;;8.27;2.67;;;;;;;27.19;38.07;99938.59;5092519;28;20043;-66
2022/08/10 05:32:20;;;;;;;8.48;2.50;;;;;;;27.37;37.91;99954.59;5093339;28;20047;-66
2022/08/10 05:34:46;;;;;;;8.68;2.45;;;;;;;27.46;37.76;99961.22;5092458;28;20044;-66
2022/08/10 05:37:12;;;;;;;7.03;2.50;;;;;;;27.50;37.37;99934.25;5109822;28;20032;-66
2022/08/10 05:39:38;;;;;;;10.85;2.45;;;;;;;27.55;37.31;99951.50;5109625;28;20043;-66
2022/08/10 05:42:05;;;;;;;5.75;2.20;;;;;;;27.86;37.08;99966.22;5092699;28;20130;-66
2022/08/10 05:44:31;;;;;;;5.00;2.00;;;;;;;27.73;37.19;99961.19;5075777;28;20134;-66
2022/08/10 05:46:57;;;;;;;8.23;2.20;;;;;;;27.85;37.11;99972.75;5109308;28;20126;-67
2022/08/10 05:49:23;;;;;;;7.43;2.45;;;;;;;27.94;36.78;99972.03;5075835;28;20050;-66
2022/08/10 05:51:49;;;;;;;5.85;2.67;;;;;;;28.07;36.62;99980.84;5109746;28;20130;-66
2022/08/10 05:54:14;;;;;;;8.13;2.38;;;;;;;28.08;36.58;99977.84;5076550;28;20491;-67
2022/08/10 05:56:42;;;;;;;10.02;2.25;;;;;;;28.33;36.17;99988.94;5110082;28;20126;-66
2022/08/10 05:59:10;;;;;;;3.92;1.88;;;;;;;28.40;36.05;99986.78;5109633;28;20042;-66
2022/08/10 06:01:39;;;;;;;3.45;2.00;;;;;;;28.50;36.07;99992.34;5109585;28;20389;-66
2022/08/10 06:04:05;;;;;;;7.35;2.13;;;;;;;28.59;35.96;99992.63;5109314;28;20092;-66
2022/08/10 06:06:33;;;;;;;6.72;2.17;;;;;;;28.75;35.56;99986.16;5092548;28;20127;-65
2022/08/10 06:08:59;;;;;;;5.25;1.50;;;;;;;28.80;35.42;99992.44;5095435;28;20138;-66
2022/08/10 06:11:28;;;;;;;6.32;1.63;;;;;;;28.91;34.74;99994.13;5096486;28;20159;-66
2022/08/10 06:16:42;;;;;;;4.35;1.45;;;;;;;29.00;34.60;100008.13;5098942;28;20131;-66
2022/08/10 06:19:09;;;;;;;5.45;2.00;;;;;;;29.07;34.19;100008.72;5114701;28;20051;-66
2022/08/10 06:21:35;;;;;;;7.57;1.60;;;;;;;29.18;34.14;100005.75;5113500;28;20045;-66
2022/08/10 06:24:01;;;;;;;3.83;1.40;;;;;;;29.19;33.61;100025.72;5096433;28;20170;-66
2022/08/10 06:26:27;;;;;;;7.20;1.50;;;;;;;29.19;33.60;100022.97;5079101;28;20489;-66
2022/08/10 06:28:57;;;;;;;4.35;1.60;;;;;;;29.21;33.26;100032.56;5079153;28;20139;-66
2022/08/10 06:31:24;;;;;;;4.53;1.50;;;;;;;28.86;33.35;100024.19;5095942;28;20040;-66
2022/08/10 06:33:50;;;;;;;3.30;1.63;;;;;;;28.79;33.82;100022.81;5112745;28;20466;-66
2022/08/10 06:36:16;;;;;;;2.97;1.35;;;;;;;28.87;33.58;100025.84;5113983;28;20050;-66
2022/08/10 06:38:44;;;;;;;4.85;1.65;;;;;;;29.05;33.56;100027.28;5095776;28;20050;-66
2022/08/10 06:41:14;;;;;;;5.25;1.60;;;;;;;29.10;33.08;100014.47;5112591;28;20047;-65
2022/08/10 06:43:40;;;;;;;;;;;;;;;29.56;31.96;100049.06;5112868;28;20047;-66
2022/08/10 06:46:11;;;;;;;4.28;1.60;;;;;;;29.71;32.28;100044.72;5095478;28;19938;-66
2022/08/10 06:48:56;;;;;;;8.57;1.58;;;;;;;29.77;31.51;100021.72;5112789;28;20044;-66
2022/08/10 06:51:25;;;;;;;2.13;1.25;;;;;;;29.95;31.22;100037.59;5113770;28;20122;-66
2022/08/10 06:53:56;;;;;;;5.43;1.40;;;;;;;30.11;30.95;100029.09;5095197;28;20050;-67
2022/08/10 06:56:24;;;;;;;4.18;1.70;;;;;;;30.23;31.20;100037.06;5061826;28;20480;-66
2022/08/10 06:59:10;;;;;;;6.10;1.45;;;;;;;30.53;30.57;100018.63;5112288;28;20044;-67
2022/08/10 07:01:38;;;;;;;9.65;1.90;;;;;;;30.85;30.70;100032.81;5094816;28;20035;-66
2022/08/10 07:04:14;;;;;;;7.68;1.80;;;;;;;31.11;29.68;100017.03;5112613;28;20072;-66
2022/08/10 07:06:42;;;;;;;5.05;1.25;;;;;;;31.13;29.79;100026.63;5078811;28;20088;-66
2022/08/10 07:09:13;;;;;;;2.20;1.40;;;;;;;30.98;29.50;100023.94;5078092;28;20489;-65
2022/08/10 07:11:40;;;;;;;6.80;1.30;;;;;;;30.79;29.75;100003.75;5078299;28;20039;-66
2022/08/10 07:14:07;;;;;;;4.88;1.60;;;;;;;30.80;30.00;100023.75;5112010;28;20063;-66
2022/08/10 07:16:34;;;;;;;2.60;1.30;;;;;;;31.02;29.71;100013.22;5094766;28;20039;-66
2022/08/10 07:19:00;;;;;;;2.90;1.40;;;;;;;31.41;28.48;100014.16;5094549;28;20114;-66
2022/08/10 07:21:30;;;;;;;3.58;1.50;;;;;;;32.16;27.94;100032.78;5094999;28;20054;-66
2022/08/10 07:23:56;;;;;;;6.63;1.67;;;;;;;33.27;26.54;100023.25;5112760;27;20385;-66
2022/08/10 07:26:23;;;;;;;5.13;1.38;;;;;;;34.69;24.20;100009.53;5094725;28;20047;-68
2022/08/10 07:28:50;;;;;;;4.10;1.25;;;;;;;35.32;23.15;99997.38;5111858;28;20112;-66
2022/08/10 07:31:20;;;;;;;5.43;1.73;;;;;;;35.31;22.79;100012.31;5112552;28;20127;-67
2022/08/10 07:33:48;;;;;;;9.35;1.38;;;;;;;35.81;22.16;100015.84;5077878;28;20047;-66
2022/08/10 07:36:14;;;;;;;7.32;1.20;;;;;;;37.07;20.57;100002.94;5094694;28;20054;-66
2022/08/10 07:38:41;;;;;;;2.50;1.35;;;;;;;38.77;18.73;100009.44;5112424;28;20058;-66
2022/08/10 07:41:08;;;;;;;2.85;1.50;;;;;;;39.19;17.75;99991.72;5094326;28;20042;-67
2022/08/10 07:43:36;;;;;;;2.85;1.10;;;;;;;40.03;17.00;99997.69;5077558;28;20460;-67
2022/08/10 07:46:03;;;;;;;3.75;1.13;;;;;;;40.36;16.56;99994.88;5111182;28;20071;-67
2022/08/10 07:48:33;;;;;;;5.18;1.10;;;;;;;41.38;15.33;99999.00;5111251;28;20050;-67
2022/08/10 07:51:00;;;;;;;4.03;1.13;;;;;;;41.76;15.25;99999.34;5094242;28;20074;-67
2022/08/10 07:53:33;;;;;;;3.17;1.08;;;;;;;41.40;15.35;99998.66;5110902;28;20047;-67
2022/08/10 07:56:02;;;;;;;7.65;1.38;;;;;;;40.15;16.55;99989.34;5094007;28;20044;-67
2022/08/10 07:58:33;;;;;;;3.22;0.85;;;;;;;38.72;17.81;99993.78;5112376;28;20100;-66
2022/08/10 08:00:59;;;;;;;4.55;0.88;;;;;;;37.42;18.96;99992.75;5110957;28;20481;-66
2022/08/10 08:03:27;;;;;;;4.75;1.65;;;;;;;36.56;19.86;99980.66;5110844;28;20051;-67
2022/08/10 08:05:54;;;;;;;3.03;1.10;;;;;;;36.12;20.44;99988.25;5093854;28;20397;-66
2022/08/10 08:08:20;;;;;;;2.75;0.90;;;;;;;35.72;20.87;99977.06;5093990;28;20047;-66
2022/08/10 08:10:47;;;;;;;7.88;1.10;;;;;;;35.51;21.05;99981.50;5093800;28;20497;-66
2022/08/10 08:13:14;;;;;;;5.22;1.23;;;;;;;35.18;21.66;99984.75;5093621;28;20074;-66
2022/08/10 08:15:40;;;;;;;5.45;1.00;;;;;;;34.98;21.84;99986.00;5110704;28;20116;-66
2022/08/10 08:18:06;;;;;;;2.20;1.00;;;;;;;34.88;21.97;99986.25;5093757;28;20160;-66
2022/08/10 08:20:32;;;;;;;3.83;1.23;;;;;;;34.62;22.41;99987.03;5111779;28;20051;-66
2022/08/10 08:22:58;;;;;;;5.97;1.40;;;;;;;34.33;22.62;99978.22;5110445;28;20073;-66
2022/08/10 08:25:24;;;;;;;4.75;1.20;;;;;;;34.64;22.14;99980.09;5093705;28;20051;-66
2022/08/10 08:27:52;;;;;;;5.07;1.35;;;;;;;35.72;20.97;99968.78;5110438;28;20043;-66
2022/08/10 08:30:20;;;;;;;6.60;1.30;;;;;;;36.94;19.31;99984.53;5093740;28;20055;-66
2022/08/10 08:32:47;;;;;;;6.72;1.30;;;;;;;38.04;18.25;99987.66;5092534;28;20047;-66
2022/08/10 08:35:16;;;;;;;4.90;1.30;;;;;;;39.36;16.78;99994.34;5111598;28;20096;-67
2022/08/10 08:37:46;;;;;;;5.30;1.40;;;;;;;40.59;15.89;99989.66;5110483;28;20111;-67
2022/08/10 08:40:20;;;;;;;3.58;1.50;;;;;;;42.02;14.68;99998.06;5110340;28;20497;-68
2022/08/10 08:43:13;;;;;;;4.47;1.60;;;;;;;43.62;13.25;99992.03;5093303;28;20456;-68
2022/08/10 08:46:04;;;;;;;5.72;1.10;;;;;;;44.22;13.10;99988.44;5093076;28;20499;-67
2022/08/10 08:49:03;;;;;;;3.03;1.15;;;;;;;44.73;12.37;99983.31;5110138;28;20075;-67
2022/08/10 08:52:13;;;;;;;6.47;1.90;;;;;;;44.57;12.49;99971.41;5111633;28;20056;-67
2022/08/10 08:55:22;;;;;;;4.65;1.27;;;;;;;43.71;12.95;99972.22;5111240;28;20055;-67
2022/08/10 08:58:04;;;;;;;3.45;1.25;;;;;;;42.72;13.26;99966.41;5075101;28;20054;-68
2022/08/10 09:00:40;;;;;;;8.82;1.38;;;;;;;41.90;14.50;99967.41;5092353;28;20139;-67
2022/08/10 09:03:18;;;;;;;3.38;1.17;;;;;;;41.41;14.59;99964.81;5086153;28;20047;-67
2022/08/10 09:05:50;;;;;;;7.45;1.73;;;;;;;40.63;15.25;99957.19;5109689;28;20055;-67
2022/08/10 09:08:44;;;;;;;3.78;1.52;;;;;;;39.68;16.03;99956.63;5110070;28;20096;-67
2022/08/10 09:11:54;;;;;;;3.08;1.30;;;;;;;38.72;16.61;99951.28;5111225;28;20035;-67
2022/08/10 09:14:43;;;;;;;2.90;1.40;;;;;;;37.40;17.39;99945.13;5104229;28;20051;-67
2022/08/10 09:17:31;;;;;;;6.25;1.80;;;;;;;36.18;18.71;99949.06;5109763;28;20048;-67
2022/08/10 09:20:10;;;;;;;3.20;1.58;;;;;;;35.39;18.83;99930.69;5111306;28;20088;-66
2022/08/10 09:22:56;;;;;;;4.80;1.20;;;;;;;34.70;20.34;99933.91;5109546;28;20039;-67
2022/08/10 09:25:31;;;;;;;4.47;1.33;;;;;;;34.22;20.70;99908.66;5092816;28;20125;-67
2022/08/10 09:28:07;;;;;;;4.85;1.10;;;;;;;34.14;21.27;99936.94;5109915;28;20425;-66
2022/08/10 09:30:51;;;;;;;2.17;1.30;;;;;;;34.03;21.32;99946.53;5110823;28;20497;-67
2022/08/10 09:33:25;;;;;;;2.83;1.65;;;;;;;33.80;21.59;99934.53;5110742;28;20047;-66
2022/08/10 09:35:56;;;;;;;5.95;1.35;;;;;;;33.70;22.10;99936.63;5109886;28;20043;-66
2022/08/10 09:38:32;;;;;;;4.47;3.13;;;;;;;33.68;22.27;99947.13;5109445;28;20052;-66
2022/08/10 09:41:15;;;;;;;3.60;1.13;;;;;;;33.67;22.12;99949.09;5109396;28;20489;-67
2022/08/10 09:43:46;;;;;;;4.13;1.35;;;;;;;33.59;22.11;99946.19;5094710;28;20168;-67
2022/08/10 09:46:17;;;;;;;2.15;1.02;;;;;;;33.46;22.48;99950.53;5096541;28;20096;-66
2022/08/10 09:48:58;;;;;;;3.22;1.20;;;;;;;33.43;22.83;99948.38;5114827;28;20032;-67
2022/08/10 09:51:23;;;;;;;;;;;;;;;33.37;22.95;99954.22;5113997;28;20071;-66
2022/08/10 09:54:06;;;;;;;7.75;1.63;;;;;;;33.19;23.18;99944.06;5114602;28;20925;-66
2022/08/10 09:56:50;;;;;;;6.47;1.30;;;;;;;32.85;23.23;99943.41;5113226;28;20062;-66
2022/08/10 09:59:29;;;;;;;2.83;1.42;;;;;;;32.82;23.50;99931.09;5114753;28;20459;-66
2022/08/10 10:02:23;;;;;;;2.45;1.10;;;;;;;32.90;23.14;99946.97;5096444;28;20043;-66
2022/08/10 10:04:58;;;;;;;3.17;1.30;;;;;;;32.75;22.99;99932.56;5095900;28;20066;-66
2022/08/10 10:07:27;;;;;;;3.45;1.88;;;;;;;32.67;23.32;99942.31;5114678;28;20054;-66
2022/08/10 10:10:09;;;;;;;3.22;1.40;;;;;;;32.63;23.46;99944.81;5079231;28;20047;-66
2022/08/10 10:12:58;;;;;;;2.93;1.20;;;;;;;32.65;23.62;99936.28;5081984;28;20058;-66
2022/08/10 10:15:32;;;;;;;4.00;1.48;;;;;;;32.42;23.78;99940.69;5096267;28;20039;-66
2022/08/10 10:18:01;;;;;;;8.00;1.52;;;;;;;32.57;23.54;99943.25;5113110;28;20435;-66
2022/08/10 10:20:40;;;;;;;3.10;1.20;;;;;;;32.48;23.90;99936.75;5071827;28;20497;-66
2022/08/10 10:23:14;;;;;;;2.60;1.30;;;;;;;32.49;24.05;99937.59;5072381;28;20071;-66
2022/08/10 10:25:54;;;;;;;2.90;1.23;;;;;;;32.47;24.11;99940.63;5073280;28;20604;-67
2022/08/10 10:28:49;;;;;;;2.45;1.38;;;;;;;32.41;24.18;99935.50;5055489;28;20076;-66
2022/08/10 10:31:57;;;;;;;3.33;1.30;;;;;;;32.41;24.20;99940.97;5080106;28;20418;-66
2022/08/10 10:34:52;;;;;;;1.77;1.10;;;;;;;32.34;24.26;99932.22;5044594;28;20552;-66
2022/08/10 10:37:20;;;;;;;4.28;1.20;;;;;;;32.22;24.56;99934.56;5071803;28;20135;-66
2022/08/10 10:39:55;;;;;;;2.95;1.10;;;;;;;32.31;24.37;99936.38;5072002;28;20127;-66
2022/08/10 10:42:45;;;;;;;3.08;1.20;;;;;;;32.20;25.18;99939.53;5073064;28;20056;-66
2022/08/10 10:45:10;;;;;;;4.53;1.55;;;;;;;31.93;25.07;99942.88;5071574;28;20171;-66
2022/08/10 10:48:08;;;;;;;5.85;1.40;;;;;;;32.02;25.42;99926.53;5071905;28;20473;-66
2022/08/10 10:51:07;;;;;;;5.30;1.90;;;;;;;31.97;25.53;99932.09;5072905;28;20037;-67
2022/08/10 10:53:45;;;;;;;7.85;1.60;;;;;;;31.90;25.33;99918.72;5054893;28;20048;-68
2022/08/10 10:56:29;;;;;;;9.73;1.60;;;;;;;32.02;25.36;99924.63;5054764;28;20044;-67
2022/08/10 10:59:37;;;;;;;3.80;1.20;;;;;;;32.02;24.85;99932.03;5054822;28;20041;-66
2022/08/10 11:02:31;;;;;;;8.60;1.40;;;;;;;32.09;25.14;99933.31;5072075;28;20045;-66
2022/08/10 11:05:21;;;;;;;6.80;1.30;;;;;;;32.23;24.89;99939.78;5072830;28;20053;-66
2022/08/10 11:07:54;;;;;;;2.88;1.15;;;;;;;32.08;25.15;99941.88;5072734;28;20497;-66
2022/08/10 11:10:24;;;;;;;3.00;1.10;;;;;;;32.23;24.90;99941.72;5054934;28;20464;-66
2022/08/10 11:13:33;;;;;;;5.10;1.30;;;;;;;32.38;24.80;99947.06;5071366;28;20067;-67
2022/08/10 11:16:36;;;;;;;3.78;1.40;;;;;;;32.35;24.88;99942.97;5071282;28;20047;-66
2022/08/10 11:19:22;;;;;;;3.38;1.40;;;;;;;32.32;24.56;99934.47;5071501;28;20437;-66
2022/08/10 11:21:56;;;;;;;3.28;1.10;;;;;;;32.23;24.94;99938.97;5073669;28;20040;-66
2022/08/10 11:24:43;;;;;;;4.13;1.48;;;;;;;32.13;24.83;99934.41;5072758;28;20041;-66
2022/08/10 11:27:40;;;;;;;3.63;1.40;;;;;;;32.15;24.98;99942.34;5071297;28;20044;-66
2022/08/10 11:30:35;;;;;;;3.85;1.60;;;;;;;32.16;25.06;99933.81;5054341;28;20140;-68
2022/08/10 11:33:15;;;;;;;3.80;1.20;;;;;;;32.29;24.86;99938.59;5071152;28;20048;-66
2022/08/10 11:35:55;;;;;;;3.40;1.25;;;;;;;32.16;25.17;99936.56;5071017;28;20121;-66
2022/08/10 11:38:24;;;;;;;4.57;1.40;;;;;;;32.25;24.22;99934.81;5070784;28;20048;-65
2022/08/10 11:41:01;;;;;;;6.07;1.52;;;;;;;32.45;24.08;99933.78;5053891;28;20048;-66
2022/08/10 11:43:28;;;;;;;2.50;1.20;;;;;;;32.49;23.55;99938.38;5070832;28;20040;-66
2022/08/10 11:46:45;;;;;;;5.28;1.40;;;;;;;32.92;23.05;99935.66;5071981;28;20052;-66
2022/08/10 11:49:30;;;;;;;3.85;1.20;;;;;;;33.03;23.34;99937.16;5081520;28;20064;-66
2022/08/10 11:52:02;;;;;;;6.30;1.30;;;;;;;33.07;23.27;99929.94;5070419;28;20045;-66
2022/08/10 11:54:34;;;;;;;2.35;1.20;;;;;;;32.95;23.22;99916.63;5070734;28;20097;-66
2022/08/10 11:57:00;;;;;;;1.90;1.20;;;;;;;33.09;23.21;99928.50;5070602;28;20704;-66
2022/08/10 12:02:19;;;;;;;1.92;1.05;;;;;;;33.37;22.49;99937.69;5071053;28;20094;-66
2022/08/10 12:05:01;;;;;;;2.30;1.33;;;;;;;33.45;21.96;99934.31;5070561;28;20519;-66